Sugar Bowl, California Weather observations

Data are for observation ending at time listed.
 Day   Time    Ave.   Ave.  Ave.  Vector   Max.   Stn.    Total    Solar   Ave.   Snow 
  of    of     Air    Rel.  Wind   Wind    Wind   Baro.  Precip.   Rad.    Soil   Depth
Year   Day     Temp.  Hum.  Speed  Dir.    Gust   Pres.                    Temp.       
2014   (PST)    F      %     mph   deg.    mph     mb.     in.     W/m2     F      in. 
---------------------------------------------------------------------------------------  
 107    8:30   52.2    53    3.4   116      9.1   784.7    0.00      60    999.0   10.4
 107    8:40   51.9    54    2.5    78     10.7   784.6    0.00      54    999.0   10.3
 107    8:50   52.9    52    2.3   346     12.1   784.6    0.00      58    999.0   10.2
 107    9:00   52.7    50    5.0   296     21.4   784.6    0.00      58    999.0   10.2
 107    9:10   52.6    50    3.3   316     13.9   784.7    0.00      63    999.0   10.4
 107    9:20   52.8    51    4.3   296     16.6   784.7    0.00      60    999.0   10.2
 107    9:30   52.9    52    3.8   295     18.8   784.8    0.00      65    999.0   10.0
 107    9:40   53.5    52    3.9   325     14.4   784.7    0.00      67    999.0    9.9
 107    9:50   53.7    52    4.1   328     13.2   784.7    0.00      77    999.0    9.9
 107   10:00   53.6    52    5.5   315     20.3   784.8    0.00      91    999.0    9.9
 107   10:10   53.6    52    4.2   303     17.0   784.9    0.00      81    999.0   10.0
 107   10:20   54.1    52    5.3   304     21.5   784.8    0.00      88    999.0    9.7
 107   10:30   54.2    51    5.1   302     20.1   784.9    0.00     684    999.0    9.9
 107   10:40   54.1    50    5.4   305     20.3   784.9    0.00     917    999.0    9.3
 107   10:50   54.4    47    4.8   299     22.0   784.9    0.00     850    999.0   10.2
 107   11:00   54.7    45    4.4   287     17.5   784.9    0.00     942    999.0    9.9
 107   11:10   54.8    43    5.1   282     21.3   784.9    0.00     989    999.0    9.5
 107   11:20   54.9    42    4.9   285     15.1   784.9    0.00     997    999.0    9.8
 107   11:30   54.9    42    4.5   305     24.5   784.8    0.00     972    999.0    9.7
 107   11:40   55.0    42    4.1   292     13.2   784.8    0.00     976    999.0    9.3
 107   11:50   55.3    42    3.5   297     15.0   784.7    0.00    1006    999.0    9.6
 107   12:00   54.9    44    4.9   290     19.7   784.7    0.00    1013    999.0    9.4
 107   12:10   55.2    44    4.5   304     14.4   784.6    0.00    1014    999.0    8.8
 107   12:20   55.1    44    4.9   294     17.1   784.6    0.00     904    999.0    9.2
 107   12:30   55.0    44    4.8   277     23.9   784.5    0.00     624    999.0    8.8
 107   12:40   54.9    44    5.4   308     21.3   784.4    0.00     329    999.0    9.4
 107   12:50   55.2    45    4.6   288     14.0   784.4    0.00     135    999.0    9.4
 107   13:00   55.1    45    6.0   291     30.2   784.4    0.00      89    999.0    9.4
 107   13:10   55.2    44    5.5   316     21.8   784.4    0.00      88    999.0    8.7
 107   13:20   55.8    44    3.8   314     12.9   784.3    0.00     101    999.0    9.1
 107   13:30   55.8    43    5.2   312     31.0   784.3    0.00      81    999.0    9.6
 107   13:40   55.6    42    4.9   318     20.0   784.2    0.00      81    999.0    8.7
 107   13:50   56.0    42    4.0   310     12.9   784.0    0.00      91    999.0    8.7
 107   14:00   55.9    43    6.0   295     27.3   784.0    0.00     163    999.0    8.4
 107   14:10   56.1    42    5.2   297     24.7   783.9    0.00     797    999.0    8.8
 107   14:20   56.7    42    4.2   293     19.3   783.8    0.00     876    999.0    8.1
 107   14:30   56.3    41    5.9   303     22.1   783.8    0.00     853    999.0    8.2
 107   14:40   56.6    41    4.8   293     26.1   783.7    0.00     851    999.0    8.1
 107   14:50   55.9    43    6.0   313     17.1   783.6    0.00     681    999.0    7.6
 107   15:00   55.3    47    5.1   308     16.0   783.6    0.00     756    999.0    8.1
 107   15:10   54.5    48    5.8   290     19.6   783.6    0.00     482    999.0    7.8
 107   15:20   54.1    51    5.7   300     18.9   783.5    0.00     538    999.0    8.3
 107   15:30   53.5    53    6.6   296     27.1   783.5    0.00     208    999.0    8.4
 107   15:40   53.0    55    6.6   297     20.2   783.5    0.00     200    999.0    6.9
 107   15:50   52.9    54    6.4   288     33.4   783.5    0.00     177    999.0    7.5
 107   16:00   52.4    55    5.7   292     19.6   783.5    0.00     252    999.0    8.1
 107   16:10   52.1    56    4.3   303     24.6   783.5    0.00     179    999.0    7.8
 107   16:20   51.7    57    6.4   287     20.6   783.6    0.00     117    999.0    7.5
 107   16:30   51.4    58    6.9   289     18.7   783.6    0.00      86    999.0    7.7
 107   16:40   51.0    58    5.5   309     30.5   783.6    0.00      99    999.0    7.8
 107   16:50   51.3    56    5.9   318     20.5   783.7    0.00      73    999.0    8.1
 107   17:00   50.6    57    6.3   313     33.2   783.7    0.00     112    999.0    7.7
 107   17:10   50.6    58    5.5   292     18.0   783.7    0.00      74    999.0    7.6
 107   17:20   50.8    58    4.2   297     16.2   783.7    0.00      63    999.0    7.7
 107   17:30   50.7    56    5.2   296     17.9   783.6    0.00     146    999.0    7.1
 107   17:40   50.2    58    5.0   286     16.7   783.6    0.00      53    999.0    7.6
 107   17:50   49.5    61    4.6   272     20.5   783.5    0.00      34    999.0    7.1
 107   18:00   48.9    63    4.0   278     23.5   783.5    0.00      25    999.0    7.3
 107   18:10   48.5    64    4.5   274     12.6   783.5    0.00      15    999.0    7.6
 107   18:20   47.9    65    3.6   269     20.7   783.5    0.00      10    999.0    7.6
 107   18:30   47.4    66    3.3   272     13.0   783.5    0.00       5    999.0    7.5
 107   18:40   46.8    68    4.4   278     10.9   783.6    0.00       2    999.0    7.2
 107   18:50   46.5    70    3.9   265     10.4   783.6    0.00       1    999.0    7.0
 107   19:00   46.0    71    3.6   272     10.2   783.7    0.00       0    999.0    6.0
 107   19:10   45.8    72    5.0   275     18.7   783.8    0.00       0    999.0    5.9
 107   19:20   45.5    74    3.2   275     11.8   783.9    0.00       0    999.0    4.5
 107   19:30   45.0    75    4.3   306     16.4   783.9    0.00       0    999.0    4.4
 107   19:40   45.0    76    5.4   314     24.1   783.9    0.00       0    999.0    5.5
 107   19:50   44.9    76    4.7   310     15.9   784.1    0.00       0    999.0    4.7
 107   20:00   44.8    77    4.0   301     20.2   784.2    0.00       0    999.0    6.1
 107   20:10   44.5    77    4.3   325     22.6   784.1    0.00       0    999.0    6.8
 107   20:20   44.5    76    6.2   319     22.0   783.9    0.00       0    999.0    6.5
 107   20:30   44.5    74    3.9   332     26.6   783.8    0.00       0    999.0    6.9
 107   20:40   44.1    74    3.4   328     13.8   783.8    0.00       0    999.0    6.7
 107   20:50   43.9    72    3.3   328     18.8   783.8    0.00       0    999.0    7.0
 107   21:00   44.2    69    4.9   314     22.0   783.9    0.00       0    999.0    7.5
 107   21:10   44.2    67    2.5   348     12.5   783.7    0.00       0    999.0    7.2
 107   21:20   43.7    68    2.3    50     12.3   783.6    0.00       0    999.0    7.6
 107   21:30   42.8    72    2.7    68     13.6   783.6    0.00       0    999.0    8.0
 107   21:40   42.7    74    1.4    74      4.2   783.6    0.00       0    999.0    8.2
 107   21:50   42.5    73    1.6    26      7.1   783.7    0.00       0    999.0    7.7
 107   22:00   41.9    74    1.4   333      6.3   783.8    0.00       0    999.0    7.8
 107   22:10   41.8    74    2.4   333     11.0   783.8    0.00       0    999.0    7.8
 107   22:20   42.8    72    2.9   331     11.0   783.8    0.00       0    999.0    7.9
 107   22:30   43.0    72    2.5   331     14.0   783.8    0.00       0    999.0    7.7
 107   22:40   42.8    74    2.9   316     11.5   783.9    0.00       0    999.0    8.1
 107   22:50   42.3    75    2.0   325      5.6   784.0    0.00       0    999.0    8.0
 107   23:00   42.0    76    1.8   332      6.1   784.1    0.00       0    999.0    8.0
 107   23:10   41.3    78    1.5    49      5.9   784.1    0.00       0    999.0    7.8
 107   23:20   40.6    80    1.3   290      5.9   784.2    0.00       0    999.0    7.7
 107   23:30   40.5    80    1.1   324      5.0   784.2    0.00       0    999.0    7.8
 107   23:40   39.7    82    1.1   215      4.3   784.2    0.00       0    999.0    7.8
 107   23:50   39.2    84    0.6   257      4.6   784.1    0.00       0    999.0    7.8
 108    0:00   39.0    85    1.3   289      4.7   784.1    0.00       0    999.0    8.0
 108    0:10   38.5    87    0.6   236      2.7   784.2    0.00       0    999.0    7.8
 108    0:20   38.7    87    0.7   240      3.4   784.2    0.00       0    999.0    7.9
 108    0:30   38.5    88    0.4   231      3.0   784.2    0.00       0    999.0    7.8
 108    0:40   38.3    88    0.4   265      3.1   784.1    0.00       0    999.0    7.8
 108    0:50   38.5    89    0.7   312      2.6   784.1    0.00       0    999.0    7.6
 108    1:00   38.5    89    0.9   235      5.1   784.0    0.00       0    999.0    7.7
 108    1:10   38.9    88    0.6   269      3.7   784.1    0.00       0    999.0    7.8
 108    1:20   38.8    88    0.5   282      3.1   784.1    0.00       0    999.0    7.8
 108    1:30   38.8    89    0.5   203      3.7   784.0    0.00       0    999.0    7.5
 108    1:40   38.6    89    0.7   220      3.3   784.1    0.00       0    999.0    7.6
 108    1:50   39.2    88    1.0   292      6.3   784.1    0.00       0    999.0    7.2
 108    2:00   39.5    85    0.7   218      5.4   784.1    0.00       0    999.0    7.4
 108    2:10   38.7    86    0.9   274      4.5   784.2    0.00       0    999.0    7.6
 108    2:20   38.2    87    0.3   208      2.7   784.2    0.00       0    999.0    7.5
 108    2:30   38.7    85    0.7   159      7.6   784.2    0.00       0    999.0    7.6
 108    2:40   38.4    85    0.8   291      4.2   784.2    0.00       0    999.0    7.6
 108    2:50   37.8    86    0.3   195      3.4   784.1    0.00       0    999.0    7.6
 108    3:00   37.8    85    0.3   218      2.5   784.1    0.00       0    999.0    7.7
 108    3:10   37.6    85    0.7   257      2.6   784.1    0.00       0    999.0    7.7
 108    3:20   36.9    85    0.2   294      1.6   784.0    0.00       0    999.0    7.7
 108    3:30   36.2    87    0.3   234      1.9   784.0    0.00       0    999.0    7.8
 108    3:40   35.7    88    0.6   182      3.4   784.1    0.00       0    999.0    7.8
 108    3:50   35.7    88    0.5    18      2.2   784.1    0.00       0    999.0    7.8
 108    4:00   35.3    88    0.3    81      2.6   784.0    0.00       0    999.0    7.9
 108    4:10   34.8    89    0.1   248      1.2   784.0    0.00       0    999.0    7.8
 108    4:20   34.5    90    0.6   314      3.1   784.0    0.00       0    999.0    7.8
 108    4:30   34.4    91    0.2   169      1.2   784.1    0.00       0    999.0    7.7
 108    4:40   34.6    91    0.0   272      0.5   784.1    0.00       0    999.0    7.7
 108    4:50   34.9    90    0.2   215      2.1   784.2    0.00       0    999.0    7.7
 108    5:00   35.0    89    0.4   185      2.4   784.3    0.00       0    999.0    7.8
 108    5:10   34.9    88    0.3   154      2.4   784.4    0.00       0    999.0    7.7
 108    5:20   35.2    88    0.3   169      2.6   784.4    0.00       1    999.0    7.7
 108    5:30   35.3    88    0.3   192      2.4   784.5    0.00       3    999.0    7.6
 108    5:40   35.6    88    0.1   200      1.4   784.6    0.00       6    999.0    7.6
 108    5:50   35.5    87    0.3   173      1.6   784.7    0.00      10    999.0    7.6
 108    6:00   36.0    88    0.3   207      1.7   784.9    0.00      13    999.0    7.6
 108    6:10   36.4    87    0.3   165      3.1   784.9    0.00      23    999.0    7.5
 108    6:20   36.8    85    1.0   112      3.9   784.9    0.00     168    999.0    7.6
 108    6:30   38.7    83    1.5   140      4.8   785.0    0.00     208    999.0    7.5
 108    6:40   40.4    80    0.7   155      4.2   785.1    0.00     234    999.0    7.6
 108    6:50   41.2    78    1.0   101      5.5   785.1    0.00     266    999.0    7.5
 108    7:00   41.9    78    1.2    81      5.4   785.2    0.00     302    999.0    8.0
 108    7:10   42.3    77    1.1    64      4.4   785.3    0.00     320    999.0    8.0
 108    7:20   42.7    76    1.9    96      9.0   785.3    0.00     342    999.0    7.6
 108    7:30   42.9    76    2.0    77      8.7   785.3    0.00     414    999.0    7.0
 108    7:40   44.1    73    1.5    36      5.5   785.4    0.00     451    999.0    6.7
 108    7:50   44.7    72    1.7    59     10.0   785.4    0.00     490    999.0    6.0
 108    8:00   44.8    73    1.9    47      5.6   785.4    0.00     297    999.0    5.8
 108    8:10   45.8    70    1.3    47      5.1   785.4    0.00     165    999.0    6.8
 108    8:20   46.0    70    1.8    55      6.8   785.4    0.00     116    999.0    7.0

Return to Sugar Bowl graphs page.


Western Regional Climate Center,wrcc@dri.edu